createdAt,value
2023-05-20T00:01:31.201Z,8.00
2023-05-20T00:04:35.275Z,8.23
2023-05-20T00:07:39.295Z,9.13
2023-05-20T00:10:43.244Z,9.47
2023-05-20T00:13:48.820Z,10.13
2023-05-20T00:16:52.895Z,9.30
2023-05-20T00:19:56.885Z,9.37
2023-05-20T00:23:00.801Z,9.13
2023-05-20T00:26:04.797Z,9.03
2023-05-20T00:29:10.489Z,9.17
2023-05-20T00:32:14.621Z,9.43
2023-05-20T00:35:18.628Z,9.87
2023-05-20T00:38:22.648Z,9.40
2023-05-20T00:41:26.593Z,9.67
2023-05-20T00:44:32.046Z,10.07
2023-05-20T00:47:37.780Z,10.17
2023-05-20T00:50:42.301Z,10.50
2023-05-20T00:53:46.550Z,9.50
2023-05-20T00:56:51.196Z,9.37
2023-05-20T00:59:57.040Z,9.70
2023-05-20T01:03:01.244Z,9.67
2023-05-20T01:06:05.505Z,9.40
2023-05-20T01:09:09.649Z,9.90
2023-05-20T01:12:18.870Z,10.03
2023-05-20T01:15:27.664Z,9.27
2023-05-20T01:18:33.913Z,9.83
2023-05-20T01:21:38.990Z,9.50
2023-05-20T01:24:46.053Z,9.87
2023-05-20T01:27:50.607Z,9.00
2023-05-20T01:30:58.115Z,9.63
2023-05-20T01:34:02.989Z,8.57
2023-05-20T01:37:08.061Z,9.07
2023-05-20T01:40:16.934Z,9.13
2023-05-20T01:43:21.991Z,8.30
2023-05-20T01:46:25.973Z,8.60
2023-05-20T01:49:29.996Z,8.97
2023-05-20T01:52:33.916Z,8.70
2023-05-20T01:55:39.274Z,9.93
2023-05-20T01:58:43.428Z,9.43
2023-05-20T02:01:47.583Z,8.77
2023-05-20T02:04:53.744Z,8.67
2023-05-20T02:07:57.756Z,8.73
2023-05-20T02:11:03.135Z,9.23
2023-05-20T02:14:09.719Z,8.20
2023-05-20T02:17:14.933Z,8.50
2023-05-20T02:20:19.380Z,9.10
2023-05-20T02:23:23.667Z,9.40
2023-05-20T02:26:29.161Z,9.80
2023-05-20T02:29:33.449Z,9.60
2023-05-20T02:32:37.557Z,9.03
2023-05-20T02:35:41.806Z,8.63
2023-05-20T02:38:46.237Z,7.83
2023-05-20T02:41:51.564Z,8.27
2023-05-20T02:44:58.744Z,7.93
2023-05-20T02:48:02.714Z,8.73
2023-05-20T02:51:08.507Z,8.77
2023-05-20T02:54:12.580Z,8.90
2023-05-20T02:57:18.085Z,8.10
2023-05-20T03:00:23.964Z,7.83
2023-05-20T03:03:28.678Z,8.20
2023-05-20T03:06:33.351Z,8.37
2023-05-20T03:09:37.677Z,8.07
2023-05-20T03:12:43.405Z,7.63
2023-05-20T03:15:47.795Z,7.93
2023-05-20T03:18:52.549Z,8.33
2023-05-20T03:21:56.829Z,8.77
2023-05-20T03:25:02.787Z,8.23
2023-05-20T03:28:08.497Z,8.37
2023-05-20T03:31:14.548Z,8.07
2023-05-20T03:34:18.507Z,9.00
2023-05-20T03:37:24.460Z,8.27
2023-05-20T03:40:28.385Z,8.33
2023-05-20T03:43:33.872Z,9.17
2023-05-20T03:46:38.338Z,9.40
2023-05-20T03:49:42.787Z,9.07
2023-05-20T03:52:46.496Z,9.50
2023-05-20T03:55:52.503Z,9.53
2023-05-20T03:58:58.508Z,9.27
2023-05-20T04:02:03.003Z,9.27
2023-05-20T04:05:09.154Z,8.77
2023-05-20T04:08:15.054Z,9.30
2023-05-20T04:11:18.878Z,9.17
2023-05-20T04:14:24.426Z,9.63
2023-05-20T04:17:30.323Z,8.37
2023-05-20T04:20:34.667Z,8.43
2023-05-20T04:23:38.977Z,8.33
2023-05-20T04:26:42.925Z,8.67
2023-05-20T04:29:50.395Z,8.50
2023-05-20T04:32:55.989Z,8.77
2023-05-20T04:36:02.007Z,8.47
2023-05-20T04:39:06.835Z,8.60
2023-05-20T04:42:11.476Z,8.00
2023-05-20T04:45:16.917Z,8.40
2023-05-20T04:48:22.650Z,7.90
2023-05-20T04:51:29.795Z,9.03
2023-05-20T04:54:34.462Z,8.63
2023-05-20T04:57:42.533Z,8.10
2023-05-20T05:00:48.665Z,8.43
2023-05-20T05:03:52.712Z,8.90
2023-05-20T05:06:58.300Z,9.00
2023-05-20T05:10:02.400Z,8.50
2023-05-20T05:13:08.101Z,9.30
2023-05-20T05:16:13.644Z,7.80
2023-05-20T05:19:17.968Z,8.37
2023-05-20T05:22:21.989Z,7.93
2023-05-20T05:25:26.707Z,8.80
2023-05-20T05:28:30.919Z,8.03
2023-05-20T05:31:37.011Z,7.97
2023-05-20T05:34:41.324Z,8.52
2023-05-20T05:37:45.861Z,8.40
2023-05-20T05:40:49.889Z,9.07
2023-05-20T05:43:54.812Z,8.73
2023-05-20T05:47:02.762Z,7.93
2023-05-20T05:50:08.108Z,8.15
2023-05-20T05:53:12.655Z,7.70
2023-05-20T05:56:19.368Z,8.25
2023-05-20T05:59:24.092Z,8.40
2023-05-20T06:02:30.042Z,7.28
2023-05-20T06:05:34.722Z,7.82
2023-05-20T06:08:39.045Z,8.48
2023-05-20T06:11:44.784Z,8.45
2023-05-20T06:14:49.254Z,8.55
2023-05-20T06:17:55.043Z,8.50
2023-05-20T06:20:59.754Z,7.50
2023-05-20T06:24:04.334Z,7.22
2023-05-20T06:27:09.173Z,7.25
2023-05-20T06:30:14.136Z,7.43
2023-05-20T06:33:20.543Z,6.70
2023-05-20T06:36:24.906Z,8.02
2023-05-20T06:39:28.985Z,7.72
2023-05-20T06:42:33.116Z,6.78
2023-05-20T06:45:41.216Z,7.60
2023-05-20T06:49:01.316Z,7.25
2023-05-20T06:52:05.751Z,7.00
2023-05-20T06:55:11.279Z,7.07
2023-05-20T06:58:17.341Z,7.15
2023-05-20T07:01:21.633Z,7.05
2023-05-20T07:04:27.173Z,7.78
2023-05-20T07:07:31.254Z,7.13
2023-05-20T07:10:36.080Z,6.07
2023-05-20T07:13:40.671Z,6.53
2023-05-20T07:16:44.957Z,6.00
2023-05-20T07:19:51.156Z,6.88
2023-05-20T07:22:55.313Z,6.38
2023-05-20T07:26:07.292Z,6.50
2023-05-20T07:29:11.905Z,6.93
2023-05-20T07:32:16.595Z,6.18
2023-05-20T07:35:22.333Z,6.15
2023-05-20T07:38:26.730Z,6.85
2023-05-20T07:41:37.937Z,6.70
2023-05-20T07:44:43.626Z,6.60
2023-05-20T07:47:47.780Z,6.90
2023-05-20T07:50:53.172Z,6.57
2023-05-20T07:53:57.787Z,6.28
2023-05-20T07:57:02.541Z,5.93
2023-05-20T08:00:08.955Z,6.40
2023-05-20T08:03:22.571Z,6.60
2023-05-20T08:06:40.193Z,6.88
2023-05-20T08:09:48.031Z,5.80
2023-05-20T08:12:54.066Z,6.28
2023-05-20T08:15:58.194Z,6.18
2023-05-20T08:19:03.242Z,5.88
2023-05-20T08:22:09.073Z,6.22
2023-05-20T08:25:13.109Z,6.68
2023-05-20T08:28:17.474Z,6.70
2023-05-20T08:31:22.330Z,6.80
2023-05-20T08:34:27.458Z,6.28
2023-05-20T08:37:32.923Z,7.30
2023-05-20T08:40:37.391Z,6.57
2023-05-20T08:43:42.425Z,6.65
2023-05-20T08:46:49.615Z,7.10
2023-05-20T08:49:53.572Z,6.40
2023-05-20T08:52:59.616Z,7.13
2023-05-20T08:56:04.245Z,6.75
2023-05-20T08:59:08.294Z,6.78
2023-05-20T09:02:12.989Z,6.63
2023-05-20T09:05:17.456Z,6.43
2023-05-20T09:08:27.177Z,6.70
2023-05-20T09:11:32.204Z,5.88
2023-05-20T09:14:36.288Z,6.50
2023-05-20T09:17:40.670Z,6.10
2023-05-20T09:20:44.584Z,6.63
2023-05-20T09:23:50.903Z,6.10
2023-05-20T09:26:55.177Z,6.13
2023-05-20T09:29:59.272Z,5.88
2023-05-20T09:33:08.061Z,6.07
2023-05-20T09:36:13.938Z,5.97
2023-05-20T09:39:27.481Z,5.75
2023-05-20T09:42:39.680Z,5.63
2023-05-20T09:45:44.100Z,6.30
2023-05-20T09:48:48.292Z,6.95
2023-05-20T09:51:54.826Z,6.07
2023-05-20T09:55:01.951Z,5.68
2023-05-20T09:58:05.934Z,5.75
2023-05-20T10:01:10.088Z,5.75
2023-05-20T10:04:17.561Z,5.90
2023-05-20T10:07:42.282Z,5.47
2023-05-20T10:10:52.370Z,16.17
2023-05-20T10:14:13.861Z,5.80
2023-05-20T10:17:26.879Z,5.72
2023-05-20T10:20:32.085Z,5.50
2023-05-20T10:23:36.283Z,7.18
2023-05-20T10:26:43.601Z,5.38
2023-05-20T10:29:51.952Z,5.70
2023-05-20T10:32:57.765Z,6.82
2023-05-20T10:36:02.956Z,6.15
2023-05-20T10:39:07.582Z,6.10
2023-05-20T10:42:13.200Z,6.07
2023-05-20T10:45:27.503Z,5.97
2023-05-20T10:48:32.975Z,5.55
2023-05-20T10:51:39.172Z,5.30
2023-05-20T10:54:47.742Z,5.40
2023-05-20T10:57:55.399Z,6.13
2023-05-20T11:00:59.726Z,5.63
2023-05-20T11:04:06.092Z,5.10
2023-05-20T11:07:10.238Z,5.60
2023-05-20T11:10:14.712Z,4.97
2023-05-20T11:13:20.650Z,4.88
2023-05-20T11:16:24.995Z,5.15
2023-05-20T11:19:29.615Z,4.63
2023-05-20T11:22:33.681Z,5.10
2023-05-20T11:25:37.679Z,4.55
2023-05-20T11:28:43.281Z,4.20
2023-05-20T11:31:51.577Z,5.00
2023-05-20T11:34:55.682Z,3.95
2023-05-20T11:38:03.685Z,4.97
2023-05-20T11:41:07.689Z,4.47
2023-05-20T11:44:14.357Z,4.93
2023-05-20T11:47:21.304Z,5.07
2023-05-20T11:50:26.731Z,5.00
2023-05-20T11:53:30.699Z,4.90
2023-05-20T11:56:36.923Z,4.60
2023-05-20T11:59:42.483Z,4.15
2023-05-20T12:02:46.675Z,4.68
2023-05-20T12:05:51.679Z,4.72
2023-05-20T12:08:55.659Z,4.78
2023-05-20T12:11:59.680Z,5.13
2023-05-20T12:15:05.559Z,4.90
2023-05-20T12:18:10.388Z,4.65
2023-05-20T12:21:14.805Z,4.60
2023-05-20T12:24:18.861Z,4.90
2023-05-20T12:27:23.055Z,4.88
2023-05-20T12:30:28.656Z,4.78
2023-05-20T12:33:32.712Z,4.78
2023-05-20T12:36:36.678Z,4.45
2023-05-20T12:39:40.753Z,4.35
2023-05-20T12:42:46.453Z,5.05
2023-05-20T12:45:52.695Z,4.80
2023-05-20T12:48:56.773Z,4.78
2023-05-20T12:52:03.520Z,5.05
2023-05-20T12:55:14.193Z,5.18
2023-05-20T12:58:18.337Z,5.93
2023-05-20T13:01:23.889Z,5.00
2023-05-20T13:04:27.992Z,6.13
2023-05-20T13:07:32.402Z,4.78
2023-05-20T13:10:36.736Z,4.97
2023-05-20T13:13:41.846Z,4.68
2023-05-20T13:16:47.560Z,5.53
2023-05-20T13:19:51.579Z,4.70
2023-05-20T13:22:55.581Z,4.70
2023-05-20T13:25:59.617Z,4.40
2023-05-20T13:29:03.703Z,5.00
2023-05-20T13:32:09.667Z,5.00
2023-05-20T13:35:15.002Z,4.93
2023-05-20T13:38:19.108Z,4.90
2023-05-20T13:41:23.180Z,4.68
2023-05-20T13:44:27.819Z,5.03
2023-05-20T13:47:33.886Z,4.57
2023-05-20T13:50:38.062Z,4.63
2023-05-20T13:53:42.215Z,5.40
2023-05-20T13:56:46.307Z,5.47
2023-05-20T13:59:50.285Z,5.22
2023-05-20T14:02:55.841Z,5.43
2023-05-20T14:06:00.214Z,4.75
2023-05-20T14:09:04.585Z,4.35
2023-05-20T14:12:09.596Z,4.63
2023-05-20T14:15:13.726Z,4.30
2023-05-20T14:18:19.443Z,4.53
2023-05-20T14:21:23.519Z,4.35
2023-05-20T14:24:27.663Z,5.07
2023-05-20T14:27:31.705Z,4.50
2023-05-20T14:30:36.177Z,4.65
2023-05-20T14:33:41.754Z,5.13
2023-05-20T14:36:45.957Z,5.03
2023-05-20T14:39:50.019Z,4.53
2023-05-20T14:42:54.026Z,4.88
2023-05-20T14:45:58.052Z,4.43
2023-05-20T14:49:03.683Z,4.40
2023-05-20T14:52:07.976Z,5.10
2023-05-20T14:55:11.989Z,4.38
2023-05-20T14:58:16.104Z,4.10
2023-05-20T15:01:20.051Z,4.30
2023-05-20T15:04:25.680Z,4.65
2023-05-20T15:07:29.716Z,4.22
2023-05-20T15:10:33.989Z,4.53
2023-05-20T15:13:40.322Z,4.07
2023-05-20T15:16:44.725Z,4.00
2023-05-20T15:19:50.267Z,4.50
2023-05-20T15:22:55.326Z,4.22
2023-05-20T15:25:59.874Z,4.47
2023-05-20T15:29:04.078Z,4.40
2023-05-20T15:32:08.727Z,4.45
2023-05-20T15:35:14.294Z,4.47
2023-05-20T15:38:18.762Z,4.43
2023-05-20T15:41:23.423Z,4.60
2023-05-20T15:44:29.055Z,3.95
2023-05-20T15:47:33.039Z,4.65
2023-05-20T15:50:38.861Z,4.70
2023-05-20T15:53:42.977Z,4.72
2023-05-20T15:56:46.971Z,4.93
2023-05-20T15:59:51.177Z,4.32
2023-05-20T16:02:56.810Z,4.97
2023-05-20T16:06:02.472Z,4.47
2023-05-20T16:09:06.456Z,4.22
2023-05-20T16:12:10.557Z,5.00
2023-05-20T16:15:14.782Z,5.32
2023-05-20T16:18:19.173Z,4.78
2023-05-20T16:21:25.344Z,4.80
2023-05-20T16:24:29.338Z,4.15
2023-05-20T16:27:33.811Z,4.57
2023-05-20T16:30:38.159Z,4.57
2023-05-20T16:33:42.175Z,4.40
2023-05-20T16:36:47.781Z,4.45
2023-05-20T16:39:51.711Z,4.68
2023-05-20T16:42:55.870Z,4.93
2023-05-20T16:46:00.034Z,4.78
2023-05-20T16:49:04.130Z,4.63
2023-05-20T16:52:10.112Z,4.75
2023-05-20T16:55:14.247Z,4.60
2023-05-20T16:58:18.366Z,4.57
2023-05-20T17:01:23.374Z,4.53
2023-05-20T17:04:27.379Z,4.72
2023-05-20T17:07:33.871Z,4.75
2023-05-20T17:10:37.863Z,5.13
2023-05-20T17:13:42.265Z,5.78
2023-05-20T17:16:46.255Z,5.32
2023-05-20T17:19:50.201Z,5.65
2023-05-20T17:22:55.736Z,5.03
2023-05-20T17:25:59.635Z,5.18
2023-05-20T17:29:03.780Z,5.80
2023-05-20T17:32:08.682Z,6.25
2023-05-20T17:35:12.661Z,5.95
2023-05-20T17:38:18.176Z,5.82
2023-05-20T17:41:22.235Z,6.38
2023-05-20T17:44:26.322Z,5.13
2023-05-20T17:47:30.456Z,5.75
2023-05-20T17:50:34.844Z,5.50
2023-05-20T17:53:40.544Z,6.35
2023-05-20T17:56:47.807Z,4.90
2023-05-20T17:59:51.807Z,5.30
2023-05-20T18:02:57.999Z,6.20
2023-05-20T18:06:02.123Z,4.95
2023-05-20T18:09:07.733Z,5.07
2023-05-20T18:12:11.730Z,5.97
2023-05-20T18:15:18.104Z,5.80
2023-05-20T18:18:22.093Z,5.90
2023-05-20T18:21:26.889Z,6.63
2023-05-20T18:24:32.496Z,5.22
2023-05-20T18:27:36.357Z,5.55
2023-05-20T18:30:40.431Z,5.97
2023-05-20T18:33:44.365Z,6.90
2023-05-20T18:36:48.565Z,6.55
2023-05-20T18:39:54.055Z,6.43
2023-05-20T18:42:58.613Z,5.95
2023-05-20T18:46:02.775Z,5.68
2023-05-20T18:49:07.043Z,5.35
2023-05-20T18:52:11.268Z,5.30
2023-05-20T18:55:16.899Z,5.25
2023-05-20T18:58:21.024Z,5.15
2023-05-20T19:01:25.122Z,5.45
2023-05-20T19:04:29.205Z,5.90
2023-05-20T19:07:33.472Z,6.10
2023-05-20T19:10:38.912Z,6.00
2023-05-20T19:13:42.973Z,5.20
2023-05-20T19:16:47.232Z,4.80
2023-05-20T19:19:51.252Z,4.95
2023-05-20T19:22:55.245Z,4.95
2023-05-20T19:26:00.973Z,4.40
2023-05-20T19:29:04.991Z,5.00
2023-05-20T19:32:09.478Z,5.05
2023-05-20T19:35:13.495Z,6.00
2023-05-20T19:38:17.709Z,5.50
2023-05-20T19:41:23.357Z,6.35
2023-05-20T19:44:27.228Z,5.87
2023-05-20T19:47:31.212Z,5.88
2023-05-20T19:50:36.738Z,6.47
2023-05-20T19:53:40.728Z,6.03
2023-05-20T19:56:46.432Z,6.18
2023-05-20T19:59:52.228Z,6.05
2023-05-20T20:02:58.402Z,6.00
2023-05-20T20:06:02.664Z,6.37
2023-05-20T20:09:06.667Z,5.18
2023-05-20T20:12:12.262Z,5.97
2023-05-20T20:15:16.444Z,5.72
2023-05-20T20:18:20.365Z,5.60
2023-05-20T20:21:26.023Z,5.82
2023-05-20T20:24:30.092Z,5.40
2023-05-20T20:27:35.676Z,5.40
2023-05-20T20:30:39.784Z,5.65
2023-05-20T20:33:43.923Z,5.33
2023-05-20T20:36:48.601Z,5.90
2023-05-20T20:39:52.601Z,5.30
2023-05-20T20:42:58.741Z,5.97
2023-05-20T20:46:02.897Z,5.90
2023-05-20T20:49:06.916Z,5.87
2023-05-20T20:52:11.397Z,5.35
2023-05-20T20:55:15.671Z,5.70
2023-05-20T20:58:21.291Z,5.53
2023-05-20T21:01:25.835Z,6.03
2023-05-20T21:04:29.966Z,5.72
2023-05-20T21:07:34.004Z,6.30
2023-05-20T21:10:38.570Z,5.70
2023-05-20T21:13:44.203Z,6.70
2023-05-20T21:16:48.172Z,5.93
2023-05-20T21:19:52.228Z,5.68
2023-05-20T21:22:56.137Z,6.15
2023-05-20T21:26:00.225Z,6.05
2023-05-20T21:29:06.393Z,6.25
2023-05-20T21:32:10.412Z,5.70
2023-05-20T21:35:14.451Z,5.55
2023-05-20T21:38:18.494Z,5.90
2023-05-20T21:41:23.746Z,6.82
2023-05-20T21:44:29.268Z,6.75
2023-05-20T21:47:33.268Z,6.80
2023-05-20T21:50:37.307Z,6.10
2023-05-20T21:53:41.388Z,6.60
2023-05-20T21:56:45.448Z,6.40
2023-05-20T21:59:51.045Z,5.67
2023-05-20T22:02:55.183Z,6.78
2023-05-20T22:05:59.174Z,6.70
2023-05-20T22:09:03.951Z,6.57
2023-05-20T22:12:08.177Z,7.07
2023-05-20T22:15:13.939Z,7.43
2023-05-20T22:18:18.038Z,6.57
2023-05-20T22:21:22.172Z,7.30
2023-05-20T22:24:26.145Z,6.35
2023-05-20T22:27:30.220Z,7.32
2023-05-20T22:30:35.927Z,7.10
2023-05-20T22:33:41.792Z,7.28
2023-05-20T22:36:45.780Z,7.32
2023-05-20T22:39:49.794Z,7.43
2023-05-20T22:42:53.942Z,7.50
2023-05-20T22:45:59.538Z,7.83
2023-05-20T22:49:03.554Z,8.17
2023-05-20T22:52:08.025Z,7.85
2023-05-20T22:55:12.955Z,8.90
2023-05-20T22:58:17.269Z,8.23
2023-05-20T23:01:22.718Z,8.10
2023-05-20T23:04:26.802Z,7.37
2023-05-20T23:07:31.533Z,7.63
2023-05-20T23:10:35.601Z,8.47
2023-05-20T23:13:39.568Z,8.03
2023-05-20T23:16:45.541Z,7.53
2023-05-20T23:19:49.602Z,7.60
2023-05-20T23:22:53.573Z,7.60
2023-05-20T23:25:57.667Z,7.23
2023-05-20T23:29:01.748Z,7.57
2023-05-20T23:32:09.146Z,6.70
2023-05-20T23:35:13.540Z,6.50
2023-05-20T23:38:17.979Z,6.17
2023-05-20T23:41:22.750Z,6.87
2023-05-20T23:44:26.854Z,6.13
2023-05-20T23:47:32.430Z,5.80
2023-05-20T23:50:36.460Z,6.40
2023-05-20T23:53:41.289Z,5.80
2023-05-20T23:56:45.448Z,6.13
2023-05-20T23:59:50.249Z,5.80
